KIZG 171654Z AUTO 28009G20KT 180V300 10SM CLR 03/M04 A2980 RMK AO2 SLP095 T00281044
KCWN 
10nm W 
171658Z AUTO 15017G27KT 10SM FEW075 14/M01 A2974 RMK AO2 PK WND 15033/24 SLP914 T01371007 $